Time;durP1;ratioP1;P1;durP2;ratioP2;P2;SDS_P1;SDS_P2;PMS_P1;PMS_P2;Temp;Humidity;BMP_temperature;BMP_pressure;BME280_temperature;BME280_humidity;BME280_pressure;Samples;Min_cycle;Max_cycle;Signal;HPM_P1;HPM_P2
2021/06/12 00:01:58;;;;;;;1999.90;999.90;;;;;;;13.97;100.00;95682.63;5130963;27;20300;-60
2021/06/12 00:04:25;;;;;;;1999.90;999.90;;;;;;;13.93;100.00;95679.88;5131041;27;20277;-63
2021/06/12 00:06:57;;;;;;;1999.90;999.90;;;;;;;14.00;100.00;95684.63;5130541;27;20298;-63
2021/06/12 00:09:24;;;;;;;1999.90;999.90;;;;;;;13.93;100.00;95682.50;5131257;27;20230;-63
2021/06/12 00:11:51;;;;;;;1999.90;999.90;;;;;;;13.86;100.00;95679.56;5130773;28;20197;-63
2021/06/12 00:14:19;;;;;;;1999.90;999.90;;;;;;;13.88;100.00;95681.88;5131004;28;20314;-63
2021/06/12 00:16:46;;;;;;;1999.90;999.90;;;;;;;13.79;100.00;95682.66;5130862;28;20222;-63
2021/06/12 00:19:13;;;;;;;1999.90;999.90;;;;;;;13.77;100.00;95676.97;5131388;28;20243;-63
2021/06/12 00:21:39;;;;;;;1999.90;999.90;;;;;;;13.76;100.00;95670.22;5130733;28;20222;-63
2021/06/12 00:24:08;;;;;;;1999.90;999.90;;;;;;;13.71;100.00;95670.38;5130773;28;20325;-63
2021/06/12 00:26:35;;;;;;;1999.90;999.90;;;;;;;13.79;100.00;95664.38;5130928;28;20201;-62
2021/06/12 00:29:03;;;;;;;1999.90;999.90;;;;;;;13.75;100.00;95668.66;5130853;28;20187;-63
2021/06/12 00:31:31;;;;;;;1999.90;999.90;;;;;;;13.73;100.00;95663.00;5130756;28;20637;-63
2021/06/12 00:33:58;;;;;;;1999.90;999.90;;;;;;;13.82;100.00;95662.97;5130535;28;20260;-63
2021/06/12 00:36:25;;;;;;;1999.90;999.90;;;;;;;13.87;100.00;95662.06;5130968;28;20222;-63
2021/06/12 00:38:53;;;;;;;1999.90;999.90;;;;;;;13.83;100.00;95667.13;5130705;28;20229;-63
2021/06/12 00:41:20;;;;;;;1999.90;999.90;;;;;;;13.89;100.00;95667.75;5130694;28;20281;-63
2021/06/12 00:43:47;;;;;;;1999.90;999.90;;;;;;;13.88;100.00;95668.81;5130592;28;20285;-62
2021/06/12 00:46:14;;;;;;;1999.90;999.90;;;;;;;13.90;100.00;95662.19;5131039;28;20202;-63
2021/06/12 00:48:44;;;;;;;1999.90;999.90;;;;;;;13.89;100.00;95659.91;5130895;28;20307;-63
2021/06/12 00:51:11;;;;;;;1999.90;999.90;;;;;;;13.92;100.00;95664.50;5130649;28;20206;-62
2021/06/12 00:53:40;;;;;;;1999.90;999.90;;;;;;;13.84;100.00;95668.69;5130821;27;20604;-62
2021/06/12 00:56:09;;;;;;;1999.90;999.90;;;;;;;13.84;100.00;95667.91;5130634;28;20193;-63
2021/06/12 00:58:41;;;;;;;1999.90;999.90;;;;;;;13.79;100.00;95666.22;5130433;28;20721;-63
2021/06/12 01:01:10;;;;;;;1999.90;999.90;;;;;;;13.89;100.00;95659.91;5130665;28;20229;-63
2021/06/12 01:03:40;;;;;;;1999.90;999.90;;;;;;;13.94;100.00;95675.44;5130452;28;20191;-63
2021/06/12 01:06:10;;;;;;;1999.90;999.90;;;;;;;13.83;100.00;95672.38;5130609;28;20186;-63
2021/06/12 01:08:37;;;;;;;1999.90;999.90;;;;;;;13.75;100.00;95670.50;5130294;28;20228;-62
2021/06/12 01:11:05;;;;;;;1999.90;999.90;;;;;;;13.73;100.00;95668.22;5130428;28;20198;-62
2021/06/12 01:13:37;;;;;;;1999.90;999.90;;;;;;;13.70;100.00;95666.22;5130513;28;20226;-63
2021/06/12 01:16:12;;;;;;;1999.90;999.90;;;;;;;13.66;100.00;95673.13;5130377;28;20757;-63
2021/06/12 01:18:42;;;;;;;1999.90;999.90;;;;;;;13.64;100.00;95675.31;5131531;27;20190;-60
2021/06/12 01:21:15;;;;;;;1999.90;999.90;;;;;;;13.65;100.00;95679.41;5134112;27;20190;-63
2021/06/12 01:24:08;;;;;;;1999.90;999.90;;;;;;;13.65;100.00;95678.66;5133985;27;20197;-63
2021/06/12 01:27:17;;;;;;;1999.90;999.90;;;;;;;13.62;100.00;95684.50;5133960;27;20294;-62
2021/06/12 01:30:05;;;;;;;1999.90;999.90;;;;;;;13.58;100.00;95686.97;5132400;27;20190;-64
2021/06/12 01:32:35;;;;;;;1999.90;999.90;;;;;;;13.42;100.00;95685.09;5133973;27;20193;-62
2021/06/12 01:35:06;;;;;;;1999.90;999.90;;;;;;;13.42;100.00;95685.09;5133733;27;20193;-62
2021/06/12 01:37:37;;;;;;;1999.90;999.90;;;;;;;13.45;100.00;95677.41;5134049;27;20194;-61
2021/06/12 01:40:07;;;;;;;1999.90;999.90;;;;;;;13.47;100.00;95679.72;5133729;27;20194;-64
2021/06/12 01:42:35;;;;;;;1999.90;999.90;;;;;;;13.41;100.00;95679.09;5133237;27;20191;-63
2021/06/12 01:45:05;;;;;;;1999.90;999.90;;;;;;;13.29;100.00;95689.41;5133498;27;20194;-64
2021/06/12 01:47:32;;;;;;;1999.90;999.90;;;;;;;13.30;100.00;95690.91;5133663;27;20194;-64
2021/06/12 01:50:01;;;;;;;1999.90;999.90;;;;;;;13.24;100.00;95692.16;5133697;27;20294;-63
2021/06/12 01:52:29;;;;;;;1999.90;999.90;;;;;;;13.30;100.00;95693.53;5133439;27;20197;-63
2021/06/12 01:54:57;;;;;;;1999.90;999.90;;;;;;;13.30;100.00;95696.13;5133326;27;20681;-64
2021/06/12 01:57:26;;;;;;;1999.90;999.90;;;;;;;13.29;100.00;95694.63;5133509;27;20194;-63
2021/06/12 01:59:55;;;;;;;1999.90;999.90;;;;;;;13.19;100.00;95700.91;5133530;27;20301;-63
2021/06/12 02:02:24;;;;;;;1999.90;999.90;;;;;;;13.14;100.00;95702.88;5133517;27;20676;-64
2021/06/12 02:04:51;;;;;;;1999.90;999.90;;;;;;;13.14;100.00;95701.03;5133119;27;20652;-64
2021/06/12 02:07:19;;;;;;;1999.90;999.90;;;;;;;13.17;100.00;95704.88;5133055;27;20665;-63
2021/06/12 02:09:47;;;;;;;1999.90;999.90;;;;;;;13.10;100.00;95700.06;5132637;27;20226;-64
2021/06/12 02:12:15;;;;;;;1999.90;999.90;;;;;;;13.11;100.00;95706.03;5133141;27;20197;-63
2021/06/12 02:14:42;;;;;;;1999.90;999.90;;;;;;;13.07;100.00;95708.50;5132833;27;20226;-63
2021/06/12 02:17:11;;;;;;;1999.90;999.90;;;;;;;13.08;100.00;95699.59;5132810;27;20198;-64
2021/06/12 02:19:42;;;;;;;1999.90;999.90;;;;;;;13.11;100.00;95687.78;5132732;27;20191;-63
2021/06/12 02:22:09;;;;;;;1999.90;999.90;;;;;;;13.10;100.00;95699.31;5133106;27;20194;-63
2021/06/12 02:24:36;;;;;;;1999.90;999.90;;;;;;;13.12;100.00;95687.50;5132844;27;20186;-63
2021/06/12 02:27:05;;;;;;;1999.90;999.90;;;;;;;13.18;100.00;95693.38;5132775;27;20190;-63
2021/06/12 02:29:33;;;;;;;1999.90;999.90;;;;;;;13.07;100.00;95692.06;5132606;27;20259;-62
2021/06/12 02:32:06;;;;;;;1999.90;999.90;;;;;;;13.12;100.00;95689.34;5132471;27;20601;-63
2021/06/12 02:34:33;;;;;;;1999.90;999.90;;;;;;;13.13;100.00;95696.88;5132536;27;20707;-63
2021/06/12 02:37:04;;;;;;;1999.90;999.90;;;;;;;13.07;100.00;95697.28;5132435;27;20354;-62
2021/06/12 02:39:31;;;;;;;1999.90;999.90;;;;;;;12.96;100.00;95694.19;5132730;27;20190;-63
2021/06/12 02:41:57;;;;;;;1999.90;999.90;;;;;;;12.90;100.00;95690.19;5132548;27;20194;-63
2021/06/12 02:44:24;;;;;;;1999.90;999.90;;;;;;;12.84;100.00;95700.00;5132459;27;20199;-64
2021/06/12 02:46:52;;;;;;;1999.90;999.90;;;;;;;12.87;100.00;95699.38;5132819;27;20277;-62
2021/06/12 02:49:24;;;;;;;1999.90;999.90;;;;;;;12.79;100.00;95705.34;5132694;27;20238;-64
2021/06/12 02:51:57;;;;;;;1999.90;999.90;;;;;;;12.80;100.00;95703.50;5132602;27;20371;-63
2021/06/12 02:54:26;;;;;;;1999.90;999.90;;;;;;;12.61;100.00;95706.34;5132211;27;20720;-64
2021/06/12 02:56:56;;;;;;;1999.90;999.90;;;;;;;12.62;100.00;95714.94;5132123;27;20657;-63
2021/06/12 02:59:24;;;;;;;1999.90;999.90;;;;;;;12.62;100.00;95713.09;5132376;27;20211;-63
2021/06/12 03:01:53;;;;;;;1999.90;999.90;;;;;;;12.59;100.00;95702.50;5132127;27;20554;-63
2021/06/12 03:04:21;;;;;;;1999.90;999.90;;;;;;;12.65;100.00;95709.88;5131997;27;20198;-63
2021/06/12 03:06:51;;;;;;;1999.90;999.90;;;;;;;12.69;100.00;95710.84;5132173;27;20197;-63
2021/06/12 03:09:21;;;;;;;1999.90;999.90;;;;;;;12.70;100.00;95714.97;5131734;27;20222;-63
2021/06/12 03:11:50;;;;;;;1999.90;999.90;;;;;;;12.72;100.00;95717.28;5131732;27;20289;-61
2021/06/12 03:14:18;;;;;;;1999.90;999.90;;;;;;;12.69;100.00;95715.28;5131767;27;20230;-64
2021/06/12 03:16:50;;;;;;;1999.90;999.90;;;;;;;12.65;100.00;95719.56;5131955;27;20190;-63
2021/06/12 03:19:17;;;;;;;1999.90;999.90;;;;;;;12.65;100.00;95717.69;5131855;27;20194;-62
2021/06/12 03:21:44;;;;;;;1999.90;999.90;;;;;;;12.76;100.00;95723.41;5131862;27;20216;-64
2021/06/12 03:24:12;;;;;;;1999.90;999.90;;;;;;;12.74;100.00;95713.31;5131759;27;20377;-63
2021/06/12 03:26:40;;;;;;;1999.90;999.90;;;;;;;12.75;100.00;95721.91;5131810;27;20221;-62
2021/06/12 03:29:11;;;;;;;1999.90;999.90;;;;;;;12.80;100.00;95727.72;5131520;27;20195;-63
2021/06/12 03:31:39;;;;;;;1999.90;999.90;;;;;;;12.74;100.00;95728.19;5131523;27;20589;-64
2021/06/12 03:34:06;;;;;;;1999.90;999.90;;;;;;;12.68;100.00;95727.53;5131368;27;20231;-63
2021/06/12 03:36:34;;;;;;;1999.90;999.90;;;;;;;12.66;100.00;95724.47;5131438;27;20545;-64
2021/06/12 03:39:01;;;;;;;1999.90;999.90;;;;;;;12.90;100.00;95730.06;5131777;27;20290;-64
2021/06/12 03:41:28;;;;;;;1999.90;999.90;;;;;;;12.82;100.00;95728.22;5130670;27;20281;-63
2021/06/12 03:43:54;;;;;;;1999.90;999.90;;;;;;;12.74;100.00;95728.97;5131318;27;20190;-63
2021/06/12 03:46:24;;;;;;;1999.90;999.90;;;;;;;12.75;100.00;95721.91;5131373;27;20190;-61
2021/06/12 03:48:51;;;;;;;1999.90;999.90;;;;;;;12.87;100.00;95727.31;5131211;27;20191;-63
2021/06/12 03:51:20;;;;;;;1999.90;999.90;;;;;;;12.94;100.00;95725.03;5131140;27;20205;-63
2021/06/12 03:53:48;;;;;;;1999.90;999.90;;;;;;;12.84;100.00;95726.09;5130995;27;20608;-64
2021/06/12 03:56:17;;;;;;;1999.90;999.90;;;;;;;12.87;100.00;95722.09;5131058;27;20205;-63
2021/06/12 03:58:45;;;;;;;1999.90;999.90;;;;;;;12.89;100.00;95727.78;5131151;27;20259;-64
2021/06/12 04:01:13;;;;;;;1999.90;999.90;;;;;;;12.82;100.00;95720.38;5131098;27;20194;-64
2021/06/12 04:03:43;;;;;;;1999.90;999.90;;;;;;;12.90;100.00;95734.53;5130971;27;20194;-63
2021/06/12 04:06:10;;;;;;;1999.90;999.90;;;;;;;12.86;100.00;95729.13;5131234;27;20202;-63
2021/06/12 04:08:37;;;;;;;1999.90;999.90;;;;;;;12.88;100.00;95721.03;5130924;27;20196;-64
2021/06/12 04:11:05;;;;;;;1999.90;999.90;;;;;;;12.95;100.00;95726.59;5130949;27;20187;-64
2021/06/12 04:13:32;;;;;;;1999.90;999.90;;;;;;;12.93;100.00;95729.50;5130808;27;20282;-64
2021/06/12 04:15:59;;;;;;;1999.90;999.90;;;;;;;13.02;100.00;95736.56;5131080;28;20613;-62
2021/06/12 04:18:26;;;;;;;1999.90;999.90;;;;;;;13.05;100.00;95734.13;5130840;28;20201;-63
2021/06/12 04:20:55;;;;;;;1999.90;999.90;;;;;;;13.05;100.00;95738.59;5130822;28;20197;-63
2021/06/12 04:23:22;;;;;;;1999.90;999.90;;;;;;;13.14;100.00;95739.41;5131091;28;20205;-63
2021/06/12 04:25:48;;;;;;;1999.90;999.90;;;;;;;13.23;100.00;95742.81;5130750;28;20194;-62
2021/06/12 04:28:15;;;;;;;1999.90;999.90;;;;;;;13.35;100.00;95743.75;5130627;28;20198;-62
2021/06/12 04:30:42;;;;;;;1999.90;999.90;;;;;;;13.42;100.00;95745.16;5130595;28;20201;-62
2021/06/12 04:33:09;;;;;;;1999.90;999.90;;;;;;;13.42;100.00;95735.47;5130549;28;20236;-62
2021/06/12 04:35:36;;;;;;;1999.90;999.90;;;;;;;13.50;100.00;95744.41;5130913;28;20190;-62
2021/06/12 04:38:04;;;;;;;1999.90;999.90;;;;;;;13.67;100.00;95736.59;5130874;28;20199;-62
2021/06/12 04:40:34;;;;;;;1999.90;999.90;;;;;;;13.73;100.00;95740.59;5130672;28;20190;-62
2021/06/12 04:43:02;;;;;;;1999.90;999.90;;;;;;;13.75;100.00;95754.84;5130583;28;20227;-62
2021/06/12 04:45:29;;;;;;;1999.90;999.90;;;;;;;13.58;100.00;95752.25;5130638;28;20277;-62
2021/06/12 04:47:56;;;;;;;1999.90;999.90;;;;;;;13.63;100.00;95756.56;5130568;28;20206;-61
2021/06/12 04:50:23;;;;;;;1999.90;999.90;;;;;;;13.70;100.00;95764.69;5130625;28;20199;-62
2021/06/12 04:52:50;;;;;;;1999.90;999.90;;;;;;;13.73;100.00;95757.03;5132010;27;20187;-62
2021/06/12 04:55:18;;;;;;;1999.90;999.90;;;;;;;13.74;100.00;95757.81;5134513;27;20195;-62
2021/06/12 04:57:45;;;;;;;1999.90;999.90;;;;;;;13.83;100.00;95761.19;5134469;27;20239;-62
2021/06/12 05:00:13;;;;;;;1999.90;999.90;;;;;;;13.96;100.00;95765.47;5134221;27;20779;-63
2021/06/12 05:02:40;;;;;;;1999.90;999.90;;;;;;;14.01;100.00;95761.94;5134666;27;20199;-62
2021/06/12 05:05:09;;;;;;;1999.90;999.90;;;;;;;14.19;100.00;95766.88;5134395;27;20194;-62
2021/06/12 05:07:36;;;;;;;1999.90;999.90;;;;;;;14.43;100.00;95763.78;5134275;27;20689;-62
2021/06/12 05:10:04;;;;;;;1999.90;999.90;;;;;;;14.65;100.00;95768.03;5134285;27;20313;-62
2021/06/12 05:12:33;;;;;;;1999.90;999.90;;;;;;;14.71;100.00;95771.25;5134211;27;20197;-61
2021/06/12 05:15:01;;;;;;;1999.90;999.90;;;;;;;14.80;100.00;95775.38;5134041;27;20727;-63
2021/06/12 05:17:28;;;;;;;1999.90;999.90;;;;;;;14.90;100.00;95776.88;5134028;27;20243;-62
2021/06/12 05:19:55;;;;;;;1999.90;999.90;;;;;;;15.02;100.00;95771.78;5134157;27;20205;-63
2021/06/12 05:22:22;;;;;;;1999.90;999.90;;;;;;;15.18;100.00;95774.66;5134034;27;20191;-62
2021/06/12 05:24:49;;;;;;;1999.90;999.90;;;;;;;15.28;100.00;95782.91;5134085;27;20567;-62
2021/06/12 05:27:16;;;;;;;1999.90;999.90;;;;;;;15.22;100.00;95778.94;5133820;27;20190;-63
2021/06/12 05:29:45;;;;;;;1999.90;999.90;;;;;;;15.30;100.00;95775.50;5134194;27;20611;-63
2021/06/12 05:32:12;;;;;;;1999.90;999.90;;;;;;;15.56;100.00;95785.88;5133924;27;20301;-62
2021/06/12 05:34:39;;;;;;;1999.90;999.90;;;;;;;15.67;100.00;95783.66;5133841;27;20222;-60
2021/06/12 05:37:06;;;;;;;1999.90;999.90;;;;;;;15.78;100.00;95782.19;5133797;27;20643;-62
2021/06/12 05:39:33;;;;;;;1999.90;999.90;;;;;;;15.78;100.00;95790.06;5133783;27;20202;-62
2021/06/12 05:42:00;;;;;;;1999.90;999.90;;;;;;;15.94;100.00;95777.91;5134005;27;20230;-62
2021/06/12 05:44:27;;;;;;;1999.90;999.90;;;;;;;16.04;98.88;95780.13;5133854;27;20190;-62
2021/06/12 05:46:55;;;;;;;1999.90;999.90;;;;;;;15.99;97.39;95788.19;5133722;27;20187;-62
2021/06/12 05:49:22;;;;;;;1999.90;999.90;;;;;;;16.12;96.20;95792.44;5133598;27;20919;-63
2021/06/12 05:51:49;;;;;;;1999.90;999.90;;;;;;;16.28;96.52;95792.63;5133541;27;20233;-62
2021/06/12 05:54:16;;;;;;;1999.90;999.90;;;;;;;16.35;97.80;95782.34;5133250;27;20735;-62
2021/06/12 05:56:43;;;;;;;1999.90;999.90;;;;;;;16.51;97.13;95779.91;5133358;27;20194;-61
2021/06/12 05:59:09;;;;;;;1999.90;999.90;;;;;;;16.59;97.92;95781.69;5133426;27;20699;-62
2021/06/12 06:01:36;;;;;;;1999.90;999.90;;;;;;;16.84;97.93;95783.28;5133302;27;20191;-62
2021/06/12 06:04:05;;;;;;;1999.90;999.90;;;;;;;16.85;95.92;95778.81;5132647;27;20271;-62
2021/06/12 06:06:31;;;;;;;1999.90;999.90;;;;;;;16.77;96.41;95777.81;5133153;27;20247;-62
2021/06/12 06:08:59;;;;;;;1999.90;999.90;;;;;;;16.79;97.23;95773.00;5132915;27;20226;-63
2021/06/12 06:11:26;;;;;;;1999.90;999.90;;;;;;;16.74;98.58;95779.22;5133249;27;20191;-63
2021/06/12 06:13:52;;;;;;;1999.90;999.90;;;;;;;16.98;97.45;95773.28;5132883;27;20326;-63
2021/06/12 06:16:19;;;;;;;1999.90;999.90;;;;;;;17.20;95.88;95780.72;5133201;27;20802;-63
2021/06/12 06:18:46;;;;;;;1999.90;999.90;;;;;;;17.26;93.71;95778.63;5132841;27;20191;-63
2021/06/12 06:21:14;;;;;;;1999.90;999.90;;;;;;;17.48;90.86;95782.69;5132867;27;20190;-62
2021/06/12 06:23:41;;;;;;;1999.90;999.90;;;;;;;17.72;89.44;95787.94;5133145;27;20229;-62
2021/06/12 06:26:08;;;;;;;1999.90;999.90;;;;;;;17.71;89.16;95781.16;5132736;27;20201;-62
2021/06/12 06:28:35;;;;;;;1999.90;999.90;;;;;;;17.83;92.33;95785.63;5133134;27;20285;-62
2021/06/12 06:31:02;;;;;;;1999.90;999.90;;;;;;;18.08;91.04;95785.22;5132725;27;20194;-62
2021/06/12 06:33:28;;;;;;;1999.90;999.90;;;;;;;18.30;85.44;95791.06;5132588;27;20222;-62
2021/06/12 06:35:55;;;;;;;1999.90;999.90;;;;;;;18.46;84.70;95792.66;5132569;27;20263;-62
2021/06/12 06:38:23;;;;;;;1999.90;999.90;;;;;;;18.52;87.52;95782.66;5132728;27;20198;-61
2021/06/12 06:40:50;;;;;;;1999.90;999.90;;;;;;;18.63;85.94;95781.09;5132474;27;20194;-62
2021/06/12 06:43:17;;;;;;;1999.90;999.90;;;;;;;18.85;80.44;95788.44;5132376;27;20194;-62
2021/06/12 06:45:45;;;;;;;1999.90;999.90;;;;;;;18.88;81.54;95786.97;5132652;27;20195;-62
2021/06/12 06:48:13;;;;;;;1999.90;999.90;;;;;;;18.80;82.20;95780.78;5132400;27;20197;-62
2021/06/12 06:50:40;;;;;;;1999.90;999.90;;;;;;;18.80;83.35;95783.41;5132472;27;20214;-62
2021/06/12 06:53:07;;;;;;;1999.90;999.90;;;;;;;18.83;82.09;95779.31;5132225;27;20660;-63
2021/06/12 06:55:36;;;;;;;1999.90;999.90;;;;;;;18.88;82.76;95774.56;5132257;27;20201;-62
2021/06/12 06:58:02;;;;;;;1999.90;999.90;;;;;;;18.91;81.33;95775.78;5132115;27;20251;-63
2021/06/12 07:00:29;;;;;;;1999.90;999.90;;;;;;;18.86;83.20;95776.81;5132053;27;20190;-62
2021/06/12 07:02:56;;;;;;;1999.90;999.90;;;;;;;19.04;84.83;95779.09;5132080;27;20282;-62
2021/06/12 07:05:23;;;;;;;1999.90;999.90;;;;;;;19.27;83.25;95772.13;5131980;27;20226;-61
2021/06/12 07:07:50;;;;;;;1999.90;999.90;;;;;;;19.40;77.66;95780.69;5132297;27;20193;-62
2021/06/12 07:10:17;;;;;;;1999.90;999.90;;;;;;;19.36;80.26;95780.63;5131687;27;20857;-62
2021/06/12 07:12:45;;;;;;;1999.90;999.90;;;;;;;19.68;81.48;95774.19;5131901;27;20194;-61
2021/06/12 07:15:12;;;;;;;1999.90;999.90;;;;;;;19.94;81.65;95770.22;5131705;27;20221;-61
2021/06/12 07:17:39;;;;;;;1999.90;999.90;;;;;;;19.76;77.43;95773.28;5130955;27;20197;-62
2021/06/12 07:20:08;;;;;;;1999.90;999.90;;;;;;;19.88;79.75;95772.34;5131660;27;20197;-62
2021/06/12 07:22:34;;;;;;;1999.90;999.90;;;;;;;20.09;78.62;95770.16;5131675;27;20201;-61
2021/06/12 07:25:01;;;;;;;1999.90;999.90;;;;;;;20.35;78.16;95768.81;5131725;27;20190;-62
2021/06/12 07:27:28;;;;;;;1999.90;999.90;;;;;;;20.63;77.33;95766.69;5131827;27;20195;-62
2021/06/12 07:29:56;;;;;;;1999.90;999.90;;;;;;;20.73;76.13;95760.81;5131467;27;20247;-62
2021/06/12 07:32:23;;;;;;;1999.90;999.90;;;;;;;20.66;77.70;95759.94;5131589;27;20191;-61
2021/06/12 07:34:50;;;;;;;1999.90;999.90;;;;;;;21.14;77.51;95759.25;5131366;27;20233;-61
2021/06/12 07:37:17;;;;;;;1999.90;999.90;;;;;;;21.52;74.80;95762.88;5131346;27;20558;-62
2021/06/12 07:39:43;;;;;;;1999.90;999.90;;;;;;;21.47;76.01;95754.09;5131447;27;20547;-62
2021/06/12 07:42:10;;;;;;;1999.90;999.90;;;;;;;21.37;76.32;95757.34;5131223;27;20680;-62
2021/06/12 07:44:37;;;;;;;1999.90;999.90;;;;;;;21.51;77.28;95748.88;5131568;27;20239;-62
2021/06/12 07:47:06;;;;;;;1999.90;999.90;;;;;;;21.52;73.26;95758.31;5131265;27;20194;-62
2021/06/12 07:49:32;;;;;;;1999.90;999.90;;;;;;;21.32;75.56;95754.25;5131433;27;20214;-62
2021/06/12 07:51:59;;;;;;;1999.90;999.90;;;;;;;21.52;75.22;95753.03;5131206;27;20547;-62
2021/06/12 07:54:27;;;;;;;1999.90;999.90;;;;;;;21.43;74.33;95758.56;5131252;27;20224;-62
2021/06/12 07:56:53;;;;;;;1999.90;999.90;;;;;;;21.32;75.69;95744.44;5131215;27;20186;-62
2021/06/12 07:59:20;;;;;;;1999.90;999.90;;;;;;;21.59;75.20;95741.78;5130988;27;20211;-62
2021/06/12 08:01:47;;;;;;;1999.90;999.90;;;;;;;21.87;77.35;95736.84;5131244;27;20193;-61
2021/06/12 08:04:15;;;;;;;1999.90;999.90;;;;;;;22.27;71.67;95744.16;5131391;27;20187;-62
2021/06/12 08:06:42;;;;;;;1999.90;999.90;;;;;;;22.46;73.45;95740.59;5131181;27;20194;-61
2021/06/12 08:09:09;;;;;;;1999.90;999.90;;;;;;;22.38;69.00;95741.63;5130753;27;20230;-62
2021/06/12 08:11:36;;;;;;;1999.90;999.90;;;;;;;22.83;66.79;95730.75;5130831;27;20198;-62
2021/06/12 08:14:03;;;;;;;1999.90;999.90;;;;;;;23.00;65.78;95726.75;5130948;27;20326;-62
2021/06/12 08:16:29;;;;;;;1999.90;999.90;;;;;;;23.02;68.32;95725.22;5131558;27;20190;-62
2021/06/12 08:18:56;;;;;;;1999.90;999.90;;;;;;;23.13;67.67;95723.44;5130864;28;20194;-62
2021/06/12 08:21:24;;;;;;;1999.90;999.90;;;;;;;23.15;67.24;95710.56;5130905;28;20660;-62
2021/06/12 08:23:51;;;;;;;1999.90;999.90;;;;;;;23.41;66.06;95714.16;5130882;28;20661;-62
2021/06/12 08:26:18;;;;;;;1999.90;999.90;;;;;;;23.40;62.31;95712.63;5130995;28;20286;-61
2021/06/12 08:28:46;;;;;;;1999.90;999.90;;;;;;;23.06;66.46;95710.09;5133999;27;20712;-62
2021/06/12 08:31:13;;;;;;;1999.90;999.90;;;;;;;23.24;65.00;95712.91;5135020;27;20194;-61
2021/06/12 08:33:40;;;;;;;1999.90;999.90;;;;;;;23.44;61.83;95708.09;5135182;27;20225;-62
2021/06/12 08:36:07;;;;;;;1999.90;999.90;;;;;;;23.67;64.71;95703.31;5135038;27;20605;-62
2021/06/12 08:38:35;;;;;;;1999.90;999.90;;;;;;;23.85;64.11;95706.84;5135044;27;20218;-62
2021/06/12 08:41:03;;;;;;;1999.90;999.90;;;;;;;23.80;60.37;95709.06;5134864;27;20190;-62
2021/06/12 08:43:30;;;;;;;1999.90;999.90;;;;;;;23.85;60.16;95701.53;5134735;27;20683;-62
2021/06/12 08:45:59;;;;;;;1999.90;999.90;;;;;;;23.93;62.78;95696.97;5135310;27;20218;-63
2021/06/12 08:48:27;;;;;;;1999.90;999.90;;;;;;;24.26;63.60;95706.63;5134802;27;20307;-62
2021/06/12 08:50:54;;;;;;;1999.90;999.90;;;;;;;24.38;62.87;95700.94;5134753;27;20194;-62
2021/06/12 08:53:21;;;;;;;1999.90;999.90;;;;;;;24.67;58.84;95702.50;5134616;27;20696;-63
2021/06/12 08:55:50;;;;;;;1999.90;999.90;;;;;;;24.72;59.80;95701.38;5134630;27;20881;-63
2021/06/12 08:58:17;;;;;;;1999.90;999.90;;;;;;;24.81;59.14;95704.41;5134658;27;20194;-61
2021/06/12 09:00:44;;;;;;;1999.90;999.90;;;;;;;24.78;57.83;95700.63;5134623;27;20194;-62
2021/06/12 09:03:16;;;;;;;1999.90;999.90;;;;;;;24.70;61.71;95695.69;5134656;27;20681;-63
2021/06/12 09:05:48;;;;;;;1999.90;999.90;;;;;;;24.19;60.85;95699.38;5134404;27;20254;-62
2021/06/12 09:08:17;;;;;;;1999.90;999.90;;;;;;;23.82;62.63;95701.47;5134345;27;20190;-61
2021/06/12 09:10:46;;;;;;;1999.90;999.90;;;;;;;23.43;60.62;95698.59;5134842;27;20240;-62
2021/06/12 09:13:14;;;;;;;1999.90;999.90;;;;;;;23.37;61.50;95697.44;5134355;27;20206;-62
2021/06/12 09:15:41;;;;;;;1999.90;999.90;;;;;;;23.00;65.34;95695.69;5134098;27;20354;-62
2021/06/12 09:18:08;;;;;;;1999.90;999.90;;;;;;;22.81;63.14;95690.63;5134171;27;20569;-62
2021/06/12 09:20:43;;;;;;;1999.90;999.90;;;;;;;22.72;61.08;95690.91;5134186;27;20229;-62
2021/06/12 09:23:12;;;;;;;1999.90;999.90;;;;;;;22.60;65.30;95693.06;5134217;27;20196;-62
2021/06/12 09:25:42;;;;;;;1999.90;999.90;;;;;;;22.33;65.04;95682.59;5134127;27;20194;-62
2021/06/12 09:28:09;;;;;;;1999.90;999.90;;;;;;;22.25;68.23;95680.22;5133986;27;20194;-61
2021/06/12 09:30:38;;;;;;;1999.90;999.90;;;;;;;22.33;64.33;95677.28;5134018;27;20222;-62
2021/06/12 09:33:05;;;;;;;1999.90;999.90;;;;;;;22.11;64.14;95680.84;5133626;27;20304;-62
2021/06/12 09:35:35;;;;;;;1999.90;999.90;;;;;;;22.10;64.48;95671.38;5133751;27;20222;-62
2021/06/12 09:38:02;;;;;;;1999.90;999.90;;;;;;;22.16;65.57;95659.34;5134200;27;20214;-62
2021/06/12 09:40:32;;;;;;;1999.90;999.90;;;;;;;22.27;63.68;95654.91;5132903;27;20286;-62
2021/06/12 09:43:01;;;;;;;1999.90;999.90;;;;;;;22.19;63.86;95661.25;5133563;27;20233;-62
2021/06/12 09:45:29;;;;;;;1999.90;999.90;;;;;;;22.20;66.54;95660.16;5133545;27;20194;-62
2021/06/12 09:48:19;;;;;;;1999.90;999.90;;;;;;;22.22;66.25;95652.59;5133568;27;20197;-62
2021/06/12 09:50:47;;;;;;;1999.90;999.90;;;;;;;22.54;65.48;95652.13;5126873;27;20234;-62
2021/06/12 09:53:17;;;;;;;1999.90;999.90;;;;;;;22.61;65.98;95652.19;5133810;27;20198;-62
2021/06/12 09:55:45;;;;;;;1999.90;999.90;;;;;;;22.91;66.27;95654.72;5133454;27;20696;-62
2021/06/12 09:58:13;;;;;;;1999.90;999.90;;;;;;;22.94;63.76;95661.94;5133422;27;20724;-62
2021/06/12 10:00:41;;;;;;;1999.90;999.90;;;;;;;22.88;64.63;95656.22;5133570;27;20642;-62
2021/06/12 10:03:22;;;;;;;1999.90;999.90;;;;;;;22.98;66.10;95660.81;5133511;27;20229;-62
2021/06/12 10:05:50;;;;;;;1999.90;999.90;;;;;;;23.11;65.60;95670.00;5133222;27;20624;-62
2021/06/12 10:08:18;;;;;;;1999.90;999.90;;;;;;;23.28;63.44;95657.97;5132960;27;20657;-62
2021/06/12 10:10:49;;;;;;;1999.90;999.90;;;;;;;23.68;67.19;95659.72;5133201;27;20230;-62
2021/06/12 10:13:17;;;;;;;1999.90;999.90;;;;;;;24.09;62.07;95652.28;5133227;27;20191;-62
2021/06/12 10:15:46;;;;;;;1999.90;999.90;;;;;;;24.29;62.56;95645.53;5133013;27;20233;-62
2021/06/12 10:18:20;;;;;;;1999.90;999.90;;;;;;;24.73;59.74;95637.19;5133308;27;20194;-62
2021/06/12 10:20:48;;;;;;;1999.90;999.90;;;;;;;24.86;57.40;95637.56;5133280;27;20621;-62
2021/06/12 10:23:15;;;;;;;1999.90;999.90;;;;;;;25.04;57.70;95640.25;5132897;27;20243;-63
2021/06/12 10:25:43;;;;;;;1999.90;999.90;;;;;;;25.22;55.78;95635.63;5133053;27;20191;-62
2021/06/12 10:28:10;;;;;;;1999.90;999.90;;;;;;;25.30;55.88;95637.16;5132877;27;20194;-63
2021/06/12 10:30:39;;;;;;;1999.90;999.90;;;;;;;25.28;54.92;95628.78;5132793;27;20200;-62
2021/06/12 10:33:07;;;;;;;1999.90;999.90;;;;;;;25.51;51.42;95628.31;5132805;27;20194;-62
2021/06/12 10:35:36;;;;;;;1999.90;999.90;;;;;;;25.19;53.33;95626.53;5132601;27;20222;-62
2021/06/12 10:38:05;;;;;;;1999.90;999.90;;;;;;;25.54;55.58;95628.31;5132827;27;20724;-61
2021/06/12 10:40:42;;;;;;;1999.90;999.90;;;;;;;25.83;52.11;95618.34;5132774;27;20197;-63
2021/06/12 10:43:11;;;;;;;1999.90;999.90;;;;;;;25.65;53.29;95615.75;5132665;27;20190;-62
2021/06/12 10:45:38;;;;;;;1999.90;999.90;;;;;;;25.76;50.26;95620.25;5132500;27;20194;-62
2021/06/12 10:48:06;;;;;;;1999.90;999.90;;;;;;;25.99;51.09;95608.00;5132519;27;20194;-62
2021/06/12 10:50:41;;;;;;;1999.90;999.90;;;;;;;26.27;53.26;95611.63;5132230;27;20733;-63
2021/06/12 10:53:33;;;;;;;1999.90;999.90;;;;;;;26.41;49.94;95612.28;5132399;27;20194;-63
2021/06/12 10:56:01;;;;;;;1999.90;999.90;;;;;;;26.29;50.11;95612.00;5132534;27;20211;-63